createdAt,value
2018-02-27T00:00:14.249Z,1020.56
2018-02-27T00:02:14.265Z,1020.54
2018-02-27T00:03:14.274Z,1020.49
2018-02-27T00:04:14.284Z,1020.47
2018-02-27T00:05:14.290Z,1020.47
2018-02-27T00:06:14.300Z,1020.46
2018-02-27T00:07:14.308Z,1020.44
2018-02-27T00:08:14.316Z,1020.47
2018-02-27T00:09:14.331Z,1020.42
2018-02-27T00:10:14.332Z,1020.4
2018-02-27T00:11:14.341Z,1020.4
2018-02-27T00:12:14.349Z,1020.44
2018-02-27T00:13:14.361Z,1020.45
2018-02-27T00:14:14.366Z,1020.39
2018-02-27T00:15:14.379Z,1020.36
2018-02-27T00:16:14.383Z,1020.38
2018-02-27T00:17:14.391Z,1020.38
2018-02-27T00:18:14.400Z,1020.35
2018-02-27T00:19:14.409Z,1020.38
2018-02-27T00:20:14.421Z,1020.39
2018-02-27T00:21:14.427Z,1020.41
2018-02-27T00:22:14.437Z,1020.42
2018-02-27T00:23:14.444Z,1020.38
2018-02-27T00:24:14.449Z,1020.39
2018-02-27T00:25:14.462Z,1020.39
2018-02-27T00:26:14.470Z,1020.35
2018-02-27T00:27:14.478Z,1020.38
2018-02-27T00:28:14.483Z,1020.38
2018-02-27T00:29:14.502Z,1020.39
2018-02-27T00:30:14.503Z,1020.39
2018-02-27T00:31:14.508Z,1020.36
2018-02-27T00:32:14.519Z,1020.42
2018-02-27T00:34:14.532Z,1020.39
2018-02-27T00:35:14.542Z,1020.4
2018-02-27T00:36:14.551Z,1020.38
2018-02-27T00:37:14.558Z,1020.39
2018-02-27T00:38:14.565Z,1020.39
2018-02-27T00:39:14.575Z,1020.39
2018-02-27T00:40:14.586Z,1020.39
2018-02-27T00:41:14.591Z,1020.36
2018-02-27T00:42:14.600Z,1020.32
2018-02-27T00:43:14.606Z,1020.35
2018-02-27T00:44:14.615Z,1020.29
2018-02-27T00:45:14.623Z,1020.28
2018-02-27T00:46:14.632Z,1020.29
2018-02-27T00:47:14.643Z,1020.27
2018-02-27T00:48:14.650Z,1020.3
2018-02-27T00:50:14.668Z,1020.28
2018-02-27T00:51:14.673Z,1020.26
2018-02-27T00:52:14.685Z,1020.27
2018-02-27T00:53:14.694Z,1020.28
2018-02-27T00:54:14.701Z,1020.26
2018-02-27T00:55:14.710Z,1020.3
2018-02-27T00:56:14.718Z,1020.26
2018-02-27T00:57:14.727Z,1020.29
2018-02-27T00:58:14.731Z,1020.25
2018-02-27T00:59:14.750Z,1020.25
2018-02-27T01:00:14.746Z,1020.26
2018-02-27T01:01:14.756Z,1020.27
2018-02-27T01:02:14.764Z,1020.26
2018-02-27T01:03:14.772Z,1020.23
2018-02-27T01:04:14.781Z,1020.25
2018-02-27T01:06:14.796Z,1020.24
2018-02-27T01:07:14.806Z,1020.26
2018-02-27T01:08:14.817Z,1020.24
2018-02-27T01:09:14.824Z,1020.23
2018-02-27T01:10:14.832Z,1020.15
2018-02-27T01:11:14.837Z,1020.19
2018-02-27T01:12:14.847Z,1020.17
2018-02-27T01:13:14.854Z,1020.17
2018-02-27T01:14:14.864Z,1020.12
2018-02-27T01:15:14.873Z,1020.11
2018-02-27T01:16:14.881Z,1020.11
2018-02-27T01:17:14.888Z,1020.09
2018-02-27T01:18:14.898Z,1020.1
2018-02-27T01:19:14.904Z,1020.12
2018-02-27T01:20:14.912Z,1020.08
2018-02-27T01:22:14.929Z,1020.09
2018-02-27T01:23:14.937Z,1020.1
2018-02-27T01:24:14.948Z,1020.07
2018-02-27T01:25:14.957Z,1020.07
2018-02-27T01:26:14.965Z,1020.1
2018-02-27T01:27:14.969Z,1020.09
2018-02-27T01:28:14.977Z,1020.02
2018-02-27T01:29:14.987Z,1020.06
2018-02-27T01:30:14.994Z,1020.04
2018-02-27T01:31:15.006Z,1020.06
2018-02-27T01:32:15.011Z,1020.05
2018-02-27T01:33:15.019Z,1020.03
2018-02-27T01:34:15.031Z,1020.05
2018-02-27T01:35:15.040Z,1020.06
2018-02-27T01:37:15.052Z,1020.03
2018-02-27T01:38:15.060Z,1020.03
2018-02-27T01:39:15.069Z,1020.02
2018-02-27T01:40:15.078Z,1020.01
2018-02-27T01:41:15.086Z,1020.03
2018-02-27T01:42:15.094Z,1020.02
2018-02-27T01:43:15.101Z,1019.99
2018-02-27T01:44:15.112Z,1019.96
2018-02-27T01:45:15.118Z,1019.94
2018-02-27T01:46:15.125Z,1019.94
2018-02-27T01:47:15.135Z,1019.88
2018-02-27T01:48:15.147Z,1019.88
2018-02-27T01:49:15.154Z,1019.88
2018-02-27T01:50:15.159Z,1019.9
2018-02-27T01:51:15.169Z,1019.85
2018-02-27T01:52:15.175Z,1019.86
2018-02-27T01:53:15.183Z,1019.86
2018-02-27T01:54:15.199Z,1019.82
2018-02-27T01:55:15.199Z,1019.82
2018-02-27T01:56:15.210Z,1019.79
2018-02-27T01:57:15.214Z,1019.82
2018-02-27T01:58:15.222Z,1019.84
2018-02-27T01:59:15.235Z,1019.79
2018-02-27T02:00:15.239Z,1019.78
2018-02-27T02:01:15.250Z,1019.79
2018-02-27T02:02:15.259Z,1019.78
2018-02-27T02:03:15.263Z,1019.77
2018-02-27T02:04:15.272Z,1019.76
2018-02-27T02:05:15.280Z,1019.75
2018-02-27T02:06:15.295Z,1019.78
2018-02-27T02:07:15.298Z,1019.77
2018-02-27T02:09:15.311Z,1019.73
2018-02-27T02:10:15.323Z,1019.7
2018-02-27T02:11:15.327Z,1019.69
2018-02-27T02:12:15.340Z,1019.66
2018-02-27T02:13:15.352Z,1019.66
2018-02-27T02:14:15.353Z,1019.66
2018-02-27T02:15:15.364Z,1019.65
2018-02-27T02:16:15.368Z,1019.63
2018-02-27T02:17:15.377Z,1019.62
2018-02-27T02:18:15.383Z,1019.66
2018-02-27T02:19:15.393Z,1019.63
2018-02-27T02:20:15.403Z,1019.61
2018-02-27T02:21:15.408Z,1019.63
2018-02-27T02:22:15.419Z,1019.59
2018-02-27T02:23:15.424Z,1019.61
2018-02-27T02:25:15.441Z,1019.55
2018-02-27T02:26:15.449Z,1019.54
2018-02-27T02:27:15.461Z,1019.55
2018-02-27T02:28:15.469Z,1019.59
2018-02-27T02:29:15.472Z,1019.56
2018-02-27T02:30:15.482Z,1019.54
2018-02-27T02:31:15.488Z,1019.54
2018-02-27T02:32:15.502Z,1019.52
2018-02-27T02:33:15.509Z,1019.51
2018-02-27T02:34:15.518Z,1019.53
2018-02-27T02:35:15.526Z,1019.49
2018-02-27T02:36:15.534Z,1019.49
2018-02-27T02:37:15.538Z,1019.49
2018-02-27T02:38:15.548Z,1019.5
2018-02-27T02:39:15.570Z,1019.44
2018-02-27T02:41:15.569Z,1019.45
2018-02-27T02:42:15.576Z,1019.45
2018-02-27T02:43:15.586Z,1019.42
2018-02-27T02:44:15.593Z,1019.41
2018-02-27T02:45:15.600Z,1019.44
2018-02-27T02:46:15.610Z,1019.41
2018-02-27T02:47:15.620Z,1019.43
2018-02-27T02:48:15.626Z,1019.43
2018-02-27T02:49:15.633Z,1019.42
2018-02-27T02:50:15.641Z,1019.4
2018-02-27T02:51:15.650Z,1019.39
2018-02-27T02:52:15.660Z,1019.37
2018-02-27T02:53:15.665Z,1019.41
2018-02-27T02:54:15.672Z,1019.39
2018-02-27T02:55:15.685Z,1019.37
2018-02-27T02:57:15.695Z,1019.37
2018-02-27T02:58:15.703Z,1019.37
2018-02-27T02:59:15.710Z,1019.36
2018-02-27T03:00:15.723Z,1019.31
2018-02-27T03:01:15.730Z,1019.35
2018-02-27T03:02:15.738Z,1019.35
2018-02-27T03:03:15.746Z,1019.29
2018-02-27T03:04:15.754Z,1019.32
2018-02-27T03:05:15.760Z,1019.29
2018-02-27T03:06:15.770Z,1019.29
2018-02-27T03:07:15.777Z,1019.29
2018-02-27T03:08:15.786Z,1019.3
2018-02-27T03:09:15.790Z,1019.28
2018-02-27T03:12:15.816Z,1019.23
2018-02-27T03:13:15.821Z,1019.23
2018-02-27T03:14:15.833Z,1019.19
2018-02-27T03:15:15.845Z,1019.23
2018-02-27T03:16:15.847Z,1019.22
2018-02-27T03:17:15.858Z,1019.17
2018-02-27T03:18:15.863Z,1019.19
2018-02-27T03:19:15.872Z,1019.22
2018-02-27T03:20:15.883Z,1019.2
2018-02-27T03:21:15.889Z,1019.17
2018-02-27T03:22:15.896Z,1019.19
2018-02-27T03:23:15.904Z,1019.15
2018-02-27T03:24:15.908Z,1019.13
2018-02-27T03:25:15.920Z,1019.17
2018-02-27T03:26:15.928Z,1019.11
2018-02-27T03:27:15.932Z,1019.09
2018-02-27T03:28:15.944Z,1019.07
2018-02-27T03:29:15.947Z,1019.1
2018-02-27T03:30:15.966Z,1019.05
2018-02-27T03:31:15.969Z,1019.03
2018-02-27T03:32:15.971Z,1019.04
2018-02-27T03:33:15.979Z,1019.01
2018-02-27T03:34:15.990Z,1018.99
2018-02-27T03:35:15.994Z,1018.99
2018-02-27T03:36:16.004Z,1018.97
2018-02-27T03:37:16.010Z,1018.98
2018-02-27T03:38:16.022Z,1018.94
2018-02-27T03:39:16.030Z,1018.95
2018-02-27T03:40:16.038Z,1018.94
2018-02-27T03:41:16.042Z,1018.91
2018-02-27T03:42:16.052Z,1018.91
2018-02-27T03:44:16.065Z,1018.85
2018-02-27T03:45:16.072Z,1018.86
2018-02-27T03:46:16.084Z,1018.85
2018-02-27T03:47:16.088Z,1018.84
2018-02-27T03:48:16.100Z,1018.83
2018-02-27T03:49:16.104Z,1018.84
2018-02-27T03:50:16.115Z,1018.84
2018-02-27T03:51:16.119Z,1018.81
2018-02-27T03:52:16.127Z,1018.83
2018-02-27T03:53:16.134Z,1018.82
2018-02-27T03:54:16.141Z,1018.81
2018-02-27T03:55:16.150Z,1018.84
2018-02-27T03:56:16.162Z,1018.84
2018-02-27T03:57:16.169Z,1018.85
2018-02-27T03:58:16.176Z,1018.85
2018-02-27T04:00:16.193Z,1018.87
2018-02-27T04:01:16.200Z,1018.82
2018-02-27T04:02:16.212Z,1018.83
2018-02-27T04:03:16.213Z,1018.78
2018-02-27T04:04:16.219Z,1018.81
2018-02-27T04:05:16.227Z,1018.83
2018-02-27T04:06:16.239Z,1018.78
2018-02-27T04:07:16.242Z,1018.78
2018-02-27T04:08:16.287Z,1018.78
2018-02-27T04:09:16.259Z,1018.79
2018-02-27T04:10:16.273Z,1018.74
2018-02-27T04:11:16.276Z,1018.75
2018-02-27T04:12:16.281Z,1018.69
2018-02-27T04:13:16.288Z,1018.76
2018-02-27T04:14:16.345Z,1018.73
2018-02-27T04:16:16.316Z,1018.74
2018-02-27T04:17:16.319Z,1018.75
2018-02-27T04:18:16.328Z,1018.73
2018-02-27T04:19:16.337Z,1018.71
2018-02-27T04:20:16.342Z,1018.75
2018-02-27T04:21:16.355Z,1018.73
2018-02-27T04:22:16.358Z,1018.7
2018-02-27T04:23:16.364Z,1018.72
2018-02-27T04:24:16.377Z,1018.72
2018-02-27T04:25:16.382Z,1018.71
2018-02-27T04:26:16.388Z,1018.72
2018-02-27T04:27:16.401Z,1018.71
2018-02-27T04:28:16.404Z,1018.68
2018-02-27T04:29:16.420Z,1018.71
2018-02-27T04:30:16.421Z,1018.7
2018-02-27T04:32:16.438Z,1018.72
2018-02-27T04:33:16.442Z,1018.72
2018-02-27T04:34:16.453Z,1018.72
2018-02-27T04:35:16.459Z,1018.69
2018-02-27T04:36:16.465Z,1018.69
2018-02-27T04:37:16.473Z,1018.67
2018-02-27T04:38:16.481Z,1018.71
2018-02-27T04:39:16.493Z,1018.67
2018-02-27T04:40:16.496Z,1018.69
2018-02-27T04:41:16.507Z,1018.69
2018-02-27T04:42:16.512Z,1018.67
2018-02-27T04:43:16.524Z,1018.67
2018-02-27T04:44:16.527Z,1018.69
2018-02-27T04:45:16.539Z,1018.69
2018-02-27T04:47:16.551Z,1018.75
2018-02-27T04:48:16.560Z,1018.68
2018-02-27T04:49:16.570Z,1018.7
2018-02-27T04:50:16.577Z,1018.68
2018-02-27T04:51:16.586Z,1018.72
2018-02-27T04:52:16.593Z,1018.65
2018-02-27T04:53:16.601Z,1018.67
2018-02-27T04:54:16.605Z,1018.62
2018-02-27T04:55:16.615Z,1018.62
2018-02-27T04:56:16.622Z,1018.6
2018-02-27T04:57:16.628Z,1018.6
2018-02-27T04:58:16.634Z,1018.58
2018-02-27T04:59:16.641Z,1018.58
2018-02-27T05:00:16.651Z,1018.6
2018-02-27T05:01:16.661Z,1018.59
2018-02-27T05:02:16.665Z,1018.59
2018-02-27T05:03:16.672Z,1018.56
2018-02-27T05:04:16.688Z,1018.46
2018-02-27T05:05:16.688Z,1018.45
2018-02-27T05:06:16.699Z,1018.45
2018-02-27T05:07:16.705Z,1018.47
2018-02-27T05:08:16.709Z,1018.45
2018-02-27T05:09:16.720Z,1018.4
2018-02-27T05:10:16.728Z,1018.41
2018-02-27T05:11:16.744Z,1018.43
2018-02-27T05:12:16.745Z,1018.42
2018-02-27T05:13:16.748Z,1018.4
2018-02-27T05:14:16.758Z,1018.4
2018-02-27T05:15:16.767Z,1018.39
2018-02-27T05:16:16.805Z,1018.37
2018-02-27T05:17:16.780Z,1018.37
2018-02-27T05:19:16.794Z,1018.35
2018-02-27T05:20:16.804Z,1018.35
2018-02-27T05:21:16.809Z,1018.34
2018-02-27T05:22:16.816Z,1018.36
2018-02-27T05:23:16.823Z,1018.34
2018-02-27T05:24:16.833Z,1018.38
2018-02-27T05:25:16.841Z,1018.36
2018-02-27T05:26:16.846Z,1018.34
2018-02-27T05:27:16.857Z,1018.33
2018-02-27T05:28:16.861Z,1018.33
2018-02-27T05:29:16.872Z,1018.34
2018-02-27T05:30:16.879Z,1018.31
2018-02-27T05:31:16.888Z,1018.32
2018-02-27T05:32:16.895Z,1018.31
2018-02-27T05:33:16.899Z,1018.33
2018-02-27T05:35:16.918Z,1018.29
2018-02-27T05:36:16.923Z,1018.27
2018-02-27T05:37:16.933Z,1018.29
2018-02-27T05:38:16.937Z,1018.32
2018-02-27T05:39:16.944Z,1018.29
2018-02-27T05:40:16.952Z,1018.29
2018-02-27T05:41:16.959Z,1018.3
2018-02-27T05:42:16.971Z,1018.29
2018-02-27T05:43:16.977Z,1018.31
2018-02-27T05:44:16.981Z,1018.3
2018-02-27T05:45:16.990Z,1018.32
2018-02-27T05:46:16.997Z,1018.32
2018-02-27T05:47:17.003Z,1018.3
2018-02-27T05:48:17.014Z,1018.29
2018-02-27T05:49:17.050Z,1018.3
2018-02-27T05:51:17.038Z,1018.26
2018-02-27T05:52:17.045Z,1018.28
2018-02-27T05:53:17.049Z,1018.27
2018-02-27T05:54:17.059Z,1018.27
2018-02-27T05:55:17.068Z,1018.25
2018-02-27T05:56:17.071Z,1018.28
2018-02-27T05:57:17.084Z,1018.22
2018-02-27T05:58:17.090Z,1018.23
2018-02-27T05:59:17.095Z,1018.25
2018-02-27T06:00:17.104Z,1018.21
2018-02-27T06:01:17.128Z,1018.23
2018-02-27T06:02:17.120Z,1018.21
2018-02-27T06:03:17.127Z,1018.24
2018-02-27T06:04:17.131Z,1018.26
2018-02-27T06:05:17.139Z,1018.26
2018-02-27T06:07:17.153Z,1018.27
2018-02-27T06:08:17.162Z,1018.29
2018-02-27T06:09:17.168Z,1018.26
2018-02-27T06:10:17.179Z,1018.3
2018-02-27T06:11:17.184Z,1018.32
2018-02-27T06:12:17.195Z,1018.29
2018-02-27T06:13:17.198Z,1018.32
2018-02-27T06:14:17.210Z,1018.32
2018-02-27T06:15:17.218Z,1018.29
2018-02-27T06:16:17.221Z,1018.36
2018-02-27T06:17:17.228Z,1018.35
2018-02-27T06:18:17.238Z,1018.33
2018-02-27T06:19:17.244Z,1018.34
2018-02-27T06:20:17.253Z,1018.36
2018-02-27T06:22:17.272Z,1018.41
2018-02-27T06:23:17.276Z,1018.39
2018-02-27T06:24:17.285Z,1018.39
2018-02-27T06:25:17.295Z,1018.4
2018-02-27T06:26:17.298Z,1018.42
2018-02-27T06:27:17.310Z,1018.42
2018-02-27T06:28:17.314Z,1018.44
2018-02-27T06:29:17.327Z,1018.51
2018-02-27T06:30:17.334Z,1018.56
2018-02-27T06:31:17.337Z,1018.56
2018-02-27T06:32:17.347Z,1018.5
2018-02-27T06:33:17.356Z,1018.54
2018-02-27T06:34:17.367Z,1018.54
2018-02-27T06:35:17.372Z,1018.62
2018-02-27T06:36:17.382Z,1018.63
2018-02-27T06:37:17.416Z,1018.57
2018-02-27T06:38:17.401Z,1018.58
2018-02-27T06:39:17.411Z,1018.58
2018-02-27T06:40:17.424Z,1018.6
2018-02-27T06:41:17.434Z,1018.63
2018-02-27T06:42:17.444Z,1018.62
2018-02-27T06:43:17.452Z,1018.66
2018-02-27T06:44:17.466Z,1018.65
2018-02-27T06:45:17.474Z,1018.6
2018-02-27T06:46:17.493Z,1018.6
2018-02-27T06:47:17.532Z,1018.63
2018-02-27T06:48:17.513Z,1018.63
2018-02-27T06:49:17.520Z,1018.6
2018-02-27T06:50:17.532Z,1018.64
2018-02-27T06:51:17.545Z,1018.68
2018-02-27T06:52:17.560Z,1018.67
2018-02-27T06:54:17.588Z,1018.58
2018-02-27T06:55:17.601Z,1018.49
2018-02-27T06:56:17.607Z,1018.53
2018-02-27T06:57:17.625Z,1018.54
2018-02-27T06:58:17.634Z,1018.53
2018-02-27T06:59:17.648Z,1018.49
2018-02-27T07:00:17.884Z,1018.52
2018-02-27T07:01:17.672Z,1018.49
2018-02-27T07:02:17.693Z,1018.51
2018-02-27T07:03:17.697Z,1018.51
2018-02-27T07:04:17.711Z,1018.45
2018-02-27T07:05:17.725Z,1018.44
2018-02-27T07:06:17.735Z,1018.43
2018-02-27T07:07:17.745Z,1018.42
2018-02-27T07:08:17.760Z,1018.38
2018-02-27T07:10:17.813Z,1018.4
2018-02-27T07:11:17.790Z,1018.39
2018-02-27T07:12:17.802Z,1018.44
2018-02-27T07:13:17.816Z,1018.44
2018-02-27T07:14:17.825Z,1018.46
2018-02-27T07:15:17.838Z,1018.44
2018-02-27T07:16:17.844Z,1018.47
2018-02-27T07:17:17.857Z,1018.49
2018-02-27T07:18:17.866Z,1018.5
2018-02-27T07:19:17.877Z,1018.46
2018-02-27T07:20:17.892Z,1018.52
2018-02-27T07:21:17.899Z,1018.52
2018-02-27T07:22:17.912Z,1018.54
2018-02-27T07:23:17.924Z,1018.57
2018-02-27T07:24:17.931Z,1018.61
2018-02-27T07:26:17.953Z,1018.65
2018-02-27T07:27:17.963Z,1018.61
2018-02-27T07:28:17.976Z,1018.6
2018-02-27T07:29:17.985Z,1018.62
2018-02-27T07:30:17.998Z,1018.65
2018-02-27T07:31:18.015Z,1018.7
2018-02-27T07:32:18.024Z,1018.71
2018-02-27T07:33:18.033Z,1018.68
2018-02-27T07:34:18.046Z,1018.7
2018-02-27T07:35:18.094Z,1018.69
2018-02-27T07:36:18.075Z,1018.66
2018-02-27T07:37:18.083Z,1018.57
2018-02-27T07:38:18.096Z,1018.56
2018-02-27T07:39:18.109Z,1018.57
2018-02-27T07:40:18.128Z,1018.58
2018-02-27T07:42:18.152Z,1018.51
2018-02-27T07:43:18.163Z,1018.5
2018-02-27T07:44:18.180Z,1018.44
2018-02-27T07:45:18.189Z,1018.42
2018-02-27T07:46:18.204Z,1018.42
2018-02-27T07:47:18.257Z,1018.43
2018-02-27T07:48:18.230Z,1018.38
2018-02-27T07:49:18.244Z,1018.4
2018-02-27T07:50:18.264Z,1018.36
2018-02-27T07:51:18.277Z,1018.41
2018-02-27T07:52:18.286Z,1018.45
2018-02-27T07:53:18.300Z,1018.44
2018-02-27T07:54:18.314Z,1018.45
2018-02-27T07:55:18.326Z,1018.44
2018-02-27T07:57:18.354Z,1018.43
2018-02-27T07:58:18.374Z,1018.33
2018-02-27T07:59:18.385Z,1018.38
2018-02-27T08:00:18.393Z,1018.37
2018-02-27T08:01:18.409Z,1018.35
2018-02-27T08:02:18.422Z,1018.36
2018-02-27T08:03:18.439Z,1018.37
2018-02-27T08:04:18.448Z,1018.38
2018-02-27T08:05:18.465Z,1018.36
2018-02-27T08:06:18.479Z,1018.29
2018-02-27T08:07:18.489Z,1018.31
2018-02-27T08:08:18.507Z,1018.33
2018-02-27T08:09:18.516Z,1018.35
2018-02-27T08:10:18.533Z,1018.33
2018-02-27T08:11:18.546Z,1018.31
2018-02-27T08:12:18.567Z,1018.34
2018-02-27T08:13:18.573Z,1018.39
2018-02-27T08:14:18.587Z,1018.35
2018-02-27T08:15:18.602Z,1018.35
2018-02-27T08:16:18.615Z,1018.33
2018-02-27T08:17:18.636Z,1018.36
2018-02-27T08:18:18.646Z,1018.39
2018-02-27T08:19:18.665Z,1018.39
2018-02-27T08:20:18.673Z,1018.32
2018-02-27T08:21:18.692Z,1018.31
2018-02-27T08:22:18.704Z,1018.34
2018-02-27T08:23:18.720Z,1018.27
2018-02-27T08:24:18.731Z,1018.29
2018-02-27T08:25:18.748Z,1018.28
2018-02-27T08:26:18.759Z,1018.27
2018-02-27T08:27:18.776Z,1018.32
2018-02-27T08:29:18.804Z,1018.33
2018-02-27T08:30:18.818Z,1018.36
2018-02-27T08:31:18.830Z,1018.39
2018-02-27T08:32:18.847Z,1018.36
2018-02-27T08:33:18.858Z,1018.37
2018-02-27T08:34:18.870Z,1018.37
2018-02-27T08:35:18.883Z,1018.37
2018-02-27T08:36:18.898Z,1018.37
2018-02-27T08:37:18.910Z,1018.37
2018-02-27T08:38:18.924Z,1018.31
2018-02-27T08:39:18.940Z,1018.34
2018-02-27T08:40:18.949Z,1018.34
2018-02-27T08:41:18.966Z,1018.35
2018-02-27T08:42:18.980Z,1018.3
2018-02-27T08:43:18.993Z,1018.31
2018-02-27T08:45:19.020Z,1018.35
2018-02-27T08:46:19.031Z,1018.35
2018-02-27T08:47:19.041Z,1018.36
2018-02-27T08:48:19.054Z,1018.35
2018-02-27T08:49:19.066Z,1018.34
2018-02-27T08:50:19.079Z,1018.33
2018-02-27T08:51:19.092Z,1018.33
2018-02-27T08:52:19.103Z,1018.28
2018-02-27T08:53:19.117Z,1018.23
2018-02-27T08:54:19.130Z,1018.27
2018-02-27T08:55:19.142Z,1018.29
2018-02-27T08:56:19.158Z,1018.25
2018-02-27T08:57:19.166Z,1018.24
2018-02-27T08:58:19.179Z,1018.22
2018-02-27T08:59:19.192Z,1018.28
2018-02-27T09:01:19.217Z,1018.26
2018-02-27T09:02:19.231Z,1018.21
2018-02-27T09:03:19.244Z,1018.24
2018-02-27T09:04:19.256Z,1018.26
2018-02-27T09:05:19.272Z,1018.22
2018-02-27T09:06:19.283Z,1018.24
2018-02-27T09:07:19.297Z,1018.22
2018-02-27T09:08:19.309Z,1018.23
2018-02-27T09:09:19.322Z,1018.25
2018-02-27T09:10:19.331Z,1018.25
2018-02-27T09:11:19.348Z,1018.23
2018-02-27T09:12:19.358Z,1018.22
2018-02-27T09:13:19.374Z,1018.16
2018-02-27T09:14:19.383Z,1018.18
2018-02-27T09:15:19.395Z,1018.22
2018-02-27T09:17:19.426Z,1018.2
2018-02-27T09:18:19.436Z,1018.2
2018-02-27T09:19:19.518Z,1018.2
2018-02-27T09:20:19.478Z,1018.17
2018-02-27T09:21:19.476Z,1018.11
2018-02-27T09:22:19.491Z,1018.16
2018-02-27T09:23:19.502Z,1018.13
2018-02-27T09:24:19.519Z,1018.13
2018-02-27T09:25:19.531Z,1018.12
2018-02-27T09:26:19.542Z,1018.12
2018-02-27T09:27:19.556Z,1018.12
2018-02-27T09:28:19.571Z,1018.07
2018-02-27T09:29:19.584Z,1018.11
2018-02-27T09:30:19.597Z,1018.07
2018-02-27T09:32:19.625Z,1018
2018-02-27T09:33:19.639Z,1018.02
2018-02-27T09:34:19.653Z,1018.01
2018-02-27T09:35:19.670Z,1018.02
2018-02-27T09:36:19.685Z,1017.98
2018-02-27T09:37:19.698Z,1017.97
2018-02-27T09:38:19.709Z,1017.96
2018-02-27T09:39:19.722Z,1017.94
2018-02-27T09:40:19.739Z,1017.94
2018-02-27T09:41:19.753Z,1017.89
2018-02-27T09:42:19.764Z,1017.9
2018-02-27T09:43:19.779Z,1017.89
2018-02-27T09:44:19.791Z,1017.87
2018-02-27T09:45:19.805Z,1017.88
2018-02-27T09:46:19.820Z,1017.87
2018-02-27T09:47:19.838Z,1017.91
2018-02-27T09:48:19.847Z,1017.92
2018-02-27T09:49:19.861Z,1017.88
2018-02-27T09:50:19.880Z,1017.93
2018-02-27T09:51:19.889Z,1017.94
2018-02-27T09:52:19.905Z,1017.87
2018-02-27T09:53:19.924Z,1017.92
2018-02-27T09:54:19.936Z,1017.91
2018-02-27T09:55:19.948Z,1017.94
2018-02-27T09:56:19.960Z,1017.9
2018-02-27T09:57:19.980Z,1017.9
2018-02-27T09:58:19.992Z,1017.88
2018-02-27T09:59:20.008Z,1017.95
2018-02-27T10:00:20.020Z,1017.93
2018-02-27T10:01:20.039Z,1017.9
2018-02-27T10:02:20.051Z,1017.9
2018-02-27T10:04:20.078Z,1017.92
2018-02-27T10:05:20.096Z,1017.9
2018-02-27T10:06:20.107Z,1017.9
2018-02-27T10:07:20.121Z,1017.91
2018-02-27T10:08:20.139Z,1017.9
2018-02-27T10:09:20.152Z,1017.88
2018-02-27T10:10:20.165Z,1017.92
2018-02-27T10:11:20.180Z,1017.9
2018-02-27T10:12:20.197Z,1017.89
2018-02-27T10:13:20.213Z,1017.94
2018-02-27T10:14:20.228Z,1017.92
2018-02-27T10:15:20.245Z,1017.91
2018-02-27T10:16:20.256Z,1017.87
2018-02-27T10:17:20.270Z,1017.87
2018-02-27T10:18:20.291Z,1017.83
2018-02-27T10:20:20.315Z,1017.78
2018-02-27T10:21:20.328Z,1017.81
2018-02-27T10:22:20.345Z,1017.79
2018-02-27T10:23:20.360Z,1017.78
2018-02-27T10:24:20.370Z,1017.79
2018-02-27T10:25:20.388Z,1017.75
2018-02-27T10:26:20.401Z,1017.8
2018-02-27T10:27:20.418Z,1017.77
2018-02-27T10:28:20.427Z,1017.79
2018-02-27T10:29:20.446Z,1017.79
2018-02-27T10:30:20.457Z,1017.84
2018-02-27T10:31:20.472Z,1017.85
2018-02-27T10:32:20.491Z,1017.82
2018-02-27T10:33:20.501Z,1017.79
2018-02-27T10:34:20.514Z,1017.78
2018-02-27T10:36:20.542Z,1017.79
2018-02-27T10:37:20.556Z,1017.7
2018-02-27T10:38:20.570Z,1017.71
2018-02-27T10:39:20.583Z,1017.69
2018-02-27T10:40:20.598Z,1017.65
2018-02-27T10:41:20.618Z,1017.66
2018-02-27T10:42:20.630Z,1017.64
2018-02-27T10:43:20.640Z,1017.62
2018-02-27T10:44:20.653Z,1017.62
2018-02-27T10:45:20.674Z,1017.63
2018-02-27T10:46:20.736Z,1017.64
2018-02-27T10:47:20.696Z,1017.61
2018-02-27T10:48:20.712Z,1017.6
2018-02-27T10:49:20.723Z,1017.59
2018-02-27T10:50:20.736Z,1017.59
2018-02-27T10:52:20.763Z,1017.55
2018-02-27T10:53:20.779Z,1017.57
2018-02-27T10:54:20.795Z,1017.55
2018-02-27T10:55:20.805Z,1017.57
2018-02-27T10:56:20.825Z,1017.56
2018-02-27T10:57:20.835Z,1017.56
2018-02-27T10:58:20.844Z,1017.5
2018-02-27T10:59:20.858Z,1017.56
2018-02-27T11:00:20.876Z,1017.51
2018-02-27T11:01:20.890Z,1017.56
2018-02-27T11:02:20.904Z,1017.54
2018-02-27T11:03:20.917Z,1017.57
2018-02-27T11:04:20.927Z,1017.51
2018-02-27T11:05:20.940Z,1017.53
2018-02-27T11:07:21.000Z,1017.49
2018-02-27T11:08:20.980Z,1017.49
2018-02-27T11:09:20.994Z,1017.51
2018-02-27T11:10:21.011Z,1017.5
2018-02-27T11:11:21.020Z,1017.46
2018-02-27T11:12:21.032Z,1017.45
2018-02-27T11:13:21.046Z,1017.47
2018-02-27T11:14:21.063Z,1017.42
2018-02-27T11:15:21.076Z,1017.49
2018-02-27T11:16:21.089Z,1017.47
2018-02-27T11:17:21.100Z,1017.4
2018-02-27T11:18:21.112Z,1017.4
2018-02-27T11:19:21.125Z,1017.4
2018-02-27T11:20:21.138Z,1017.39
2018-02-27T11:21:21.152Z,1017.34
2018-02-27T11:22:21.168Z,1017.39
2018-02-27T11:23:21.182Z,1017.42
2018-02-27T11:24:21.195Z,1017.35
2018-02-27T11:25:21.204Z,1017.35
2018-02-27T11:26:21.220Z,1017.36
2018-02-27T11:27:21.231Z,1017.34
2018-02-27T11:28:21.245Z,1017.37
2018-02-27T11:29:21.256Z,1017.33
2018-02-27T11:30:21.272Z,1017.31
2018-02-27T11:31:21.284Z,1017.31
2018-02-27T11:32:21.294Z,1017.34
2018-02-27T11:33:21.308Z,1017.33
2018-02-27T11:34:21.319Z,1017.31
2018-02-27T11:35:21.339Z,1017.32
2018-02-27T11:36:21.354Z,1017.31
2018-02-27T11:37:21.361Z,1017.33
2018-02-27T11:39:21.384Z,1017.31
2018-02-27T11:40:21.401Z,1017.29
2018-02-27T11:41:21.413Z,1017.31
2018-02-27T11:42:21.426Z,1017.26
2018-02-27T11:43:21.437Z,1017.17
2018-02-27T11:44:21.453Z,1017.16
2018-02-27T11:45:21.462Z,1017.21
2018-02-27T11:46:21.475Z,1017.24
2018-02-27T11:47:21.491Z,1017.26
2018-02-27T11:48:21.503Z,1017.19
2018-02-27T11:49:21.544Z,1017.17
2018-02-27T11:50:21.529Z,1017.2
2018-02-27T11:51:21.537Z,1017.19
2018-02-27T11:52:21.548Z,1017.18
2018-02-27T11:53:21.565Z,1017.18
2018-02-27T11:55:21.587Z,1017.18
2018-02-27T11:56:21.603Z,1017.16
2018-02-27T11:57:21.615Z,1017.16
2018-02-27T11:58:21.626Z,1017.17
2018-02-27T11:59:21.638Z,1017.11
2018-02-27T12:00:21.650Z,1017.14
2018-02-27T12:01:21.661Z,1017.17
2018-02-27T12:02:21.698Z,1017.14
2018-02-27T12:03:21.689Z,1017.15
2018-02-27T12:04:21.703Z,1017.13
2018-02-27T12:05:21.715Z,1017.14
2018-02-27T12:06:21.729Z,1017.12
2018-02-27T12:07:21.738Z,1017.14
2018-02-27T12:08:21.748Z,1017.09
2018-02-27T12:09:21.762Z,1017.11
2018-02-27T12:11:21.788Z,1017.04
2018-02-27T12:12:21.801Z,1017.11
2018-02-27T12:13:21.815Z,1017.11
2018-02-27T12:14:21.823Z,1017.12
2018-02-27T12:15:21.837Z,1017.09
2018-02-27T12:16:21.853Z,1017.05
2018-02-27T12:17:21.863Z,1017.08
2018-02-27T12:18:21.874Z,1017.1
2018-02-27T12:19:21.887Z,1017.12
2018-02-27T12:20:21.900Z,1017.05
2018-02-27T12:21:21.911Z,1017.08
2018-02-27T12:22:21.928Z,1017.11
2018-02-27T12:23:21.937Z,1017.12
2018-02-27T12:24:21.949Z,1017.06
2018-02-27T12:25:21.969Z,1017.07
2018-02-27T12:27:21.988Z,1017.02
2018-02-27T12:28:22.008Z,1017.03
2018-02-27T12:29:22.016Z,1016.97
2018-02-27T12:30:22.026Z,1017.04
2018-02-27T12:31:22.038Z,1017.05
2018-02-27T12:32:22.050Z,1017.07
2018-02-27T12:33:22.063Z,1017.06
2018-02-27T12:34:22.078Z,1017.01
2018-02-27T12:35:22.088Z,1017.01
2018-02-27T12:36:22.100Z,1016.96
2018-02-27T12:37:22.116Z,1016.92
2018-02-27T12:38:22.125Z,1016.99
2018-02-27T12:39:22.142Z,1016.99
2018-02-27T12:40:22.154Z,1017
2018-02-27T12:42:22.176Z,1017.06
2018-02-27T12:43:22.201Z,1017.07
2018-02-27T12:44:22.202Z,1017.05
2018-02-27T12:45:22.222Z,1017.06
2018-02-27T12:46:22.227Z,1017.05
2018-02-27T12:47:22.239Z,1017
2018-02-27T12:48:22.253Z,1017.01
2018-02-27T12:49:22.268Z,1017.02
2018-02-27T12:50:22.279Z,1017.01